Time;durP1;ratioP1;P1;durP2;ratioP2;P2;SDS_P1;SDS_P2;PMS_P1;PMS_P2;Temp;Humidity;BMP_temperature;BMP_pressure;BME280_temperature;BME280_humidity;BME280_pressure;Samples;Min_cycle;Max_cycle;Signal;HPM_P1;HPM_P2
2024/04/12 18:45:18;;;;;;;4.13;1.83;;;;;;;19.15;100.00;101635.72;5490581;26;20704;-76
2024/04/12 18:47:43;;;;;;;4.28;1.88;;;;;;;19.22;100.00;101619.78;5503283;26;20781;-76
2024/04/12 18:50:09;;;;;;;2.50;1.80;;;;;;;19.27;100.00;101628.03;5520425;25;20418;-76
2024/04/12 18:52:35;;;;;;;4.55;2.33;;;;;;;19.30;100.00;101629.44;5512026;25;20366;-76
2024/04/12 18:55:00;;;;;;;4.75;1.65;;;;;;;19.27;100.00;101630.78;5505962;26;20306;-76
2024/04/12 18:57:26;;;;;;;4.67;2.23;;;;;;;19.25;100.00;101638.47;5505963;26;20673;-76
2024/04/12 18:59:53;;;;;;;7.72;1.92;;;;;;;19.24;100.00;101638.75;5505033;26;20407;-76
2024/04/12 19:02:18;;;;;;;4.65;2.15;;;;;;;19.25;100.00;101645.91;5505790;26;20318;-76
2024/04/12 19:04:44;;;;;;;3.42;2.15;;;;;;;19.23;100.00;101642.63;5473587;26;20653;-76
2024/04/12 19:07:11;;;;;;;4.67;2.27;;;;;;;19.21;100.00;101647.53;5466535;26;20305;-77
2024/04/12 19:09:36;;;;;;;4.00;1.80;;;;;;;19.18;100.00;101647.00;5505851;26;20314;-76
2024/04/12 19:12:02;;;;;;;3.90;1.87;;;;;;;19.15;100.00;101655.78;5505895;26;20346;-76
2024/04/12 19:14:27;;;;;;;4.05;1.85;;;;;;;19.16;100.00;101653.88;5505484;26;20313;-76
2024/04/12 19:16:55;;;;;;;2.17;1.47;;;;;;;19.13;100.00;101657.97;5505469;26;20656;-76
2024/04/12 19:19:20;;;;;;;4.70;1.90;;;;;;;19.10;100.00;101657.69;5505686;26;20483;-76
2024/04/12 19:21:45;;;;;;;6.32;1.83;;;;;;;19.07;100.00;101656.31;5473316;26;20305;-76
2024/04/12 19:24:10;;;;;;;4.10;1.50;;;;;;;19.07;100.00;101659.06;5455962;26;20318;-76
2024/04/12 19:26:36;;;;;;;6.23;2.40;;;;;;;19.05;100.00;101658.53;5505552;26;20302;-76
2024/04/12 19:29:02;;;;;;;3.33;2.50;;;;;;;19.03;100.00;101660.69;5505746;26;20322;-76
2024/04/12 19:31:27;;;;;;;10.15;2.97;;;;;;;18.97;100.00;101670.03;5505428;26;20358;-76
2024/04/12 19:33:52;;;;;;;6.03;2.63;;;;;;;18.97;100.00;101661.78;5505586;26;20678;-76
2024/04/12 19:36:18;;;;;;;6.50;2.87;;;;;;;18.94;100.00;101662.34;5505651;26;20404;-76
2024/04/12 19:38:44;;;;;;;5.40;2.80;;;;;;;18.88;100.00;101663.41;5505110;26;20317;-76
2024/04/12 19:41:11;;;;;;;7.28;2.78;;;;;;;18.83;100.00;101665.34;5517659;25;20307;-76
2024/04/12 19:43:36;;;;;;;4.93;3.20;;;;;;;18.77;100.00;101667.22;5493411;26;20309;-76
2024/04/12 19:46:04;;;;;;;8.40;3.63;;;;;;;18.75;100.00;101668.59;5485352;26;20313;-76
2024/04/12 19:48:29;;;;;;;8.52;3.67;;;;;;;18.73;100.00;101663.38;5505301;26;20334;-76
2024/04/12 19:50:54;;;;;;;6.75;4.07;;;;;;;18.70;100.00;101663.09;5489212;26;20684;-76
2024/04/12 19:53:20;;;;;;;5.10;3.27;;;;;;;18.67;100.00;101669.97;5489549;26;20329;-77
2024/04/12 19:56:07;;;;;;;4.67;2.70;;;;;;;18.62;100.00;101665.28;5489474;26;20346;-76
2024/04/12 19:58:33;;;;;;;7.93;3.05;;;;;;;18.60;100.00;101669.38;5480931;26;20821;-76
2024/04/12 20:01:03;;;;;;;5.93;2.20;;;;;;;18.57;100.00;101673.47;5489525;26;20343;-76
2024/04/12 20:03:28;;;;;;;4.50;2.10;;;;;;;18.55;100.00;101672.94;5489196;26;20307;-76
2024/04/12 20:05:53;;;;;;;4.40;2.47;;;;;;;18.49;100.00;101676.72;5489142;26;20339;-76
2024/04/12 20:08:20;;;;;;;5.40;2.30;;;;;;;18.42;100.00;101672.56;5489158;26;20306;-76
2024/04/12 20:11:05;;;;;;;4.03;2.33;;;;;;;18.36;100.00;101673.63;5488638;26;20326;-76
2024/04/12 20:13:32;;;;;;;4.83;2.47;;;;;;;18.27;100.00;101672.50;5484529;26;20444;-76
2024/04/12 20:16:06;;;;;;;8.40;2.92;;;;;;;18.24;100.00;101676.59;5475397;26;20306;-76
2024/04/12 20:18:33;;;;;;;6.78;2.10;;;;;;;18.19;100.00;101671.06;5488573;26;20342;-76
2024/04/12 20:21:03;;;;;;;7.10;2.40;;;;;;;18.14;100.00;101666.38;5489005;26;20354;-76
2024/04/12 20:23:32;;;;;;;2.30;2.10;;;;;;;18.09;100.00;101671.84;5470037;26;20751;-76
2024/04/12 20:25:58;;;;;;;4.88;2.03;;;;;;;18.02;100.00;101663.00;5488913;26;20330;-76
2024/04/12 20:28:24;;;;;;;3.70;1.88;;;;;;;18.07;100.00;101662.22;5488842;26;20408;-76
2024/04/12 20:31:09;;;;;;;5.80;2.20;;;;;;;18.05;100.00;101667.13;5456440;26;20311;-76
2024/04/12 20:33:55;;;;;;;3.85;1.92;;;;;;;18.00;100.00;101661.63;5488903;26;20336;-76
2024/04/12 20:36:36;;;;;;;4.00;1.40;;;;;;;17.94;100.00;101666.28;5511513;26;20662;-76
2024/04/12 20:39:03;;;;;;;6.35;2.28;;;;;;;17.87;100.00;101659.34;5497327;26;20318;-76
2024/04/12 20:41:28;;;;;;;4.43;1.65;;;;;;;17.82;100.00;101671.09;5488706;26;20326;-76
2024/04/12 20:43:53;;;;;;;5.53;1.73;;;;;;;17.76;100.00;101669.41;5488222;26;20302;-75
2024/04/12 20:46:18;;;;;;;2.90;1.83;;;;;;;17.73;100.00;101667.22;5488788;26;20699;-76
2024/04/12 20:48:44;;;;;;;8.27;2.27;;;;;;;17.74;100.00;101663.38;5478280;26;20326;-76
2024/04/12 20:51:09;;;;;;;5.77;1.90;;;;;;;17.72;100.00;101659.22;5456703;26;20354;-76
2024/04/12 20:53:34;;;;;;;5.53;2.10;;;;;;;17.69;100.00;101662.50;5456616;26;20407;-76
2024/04/12 20:55:59;;;;;;;4.23;2.20;;;;;;;17.66;100.00;101663.03;5509065;26;20319;-76
2024/04/12 20:58:25;;;;;;;6.87;2.20;;;;;;;17.66;100.00;101658.38;5509916;26;20680;-76
2024/04/12 21:00:59;;;;;;;8.10;2.73;;;;;;;17.66;100.00;101669.34;5515842;26;20320;-76
2024/04/12 21:03:24;;;;;;;8.45;2.90;;;;;;;17.61;100.00;101669.31;5515903;26;20318;-76
2024/04/12 21:05:56;;;;;;;6.38;2.17;;;;;;;17.56;100.00;101664.63;5477140;26;20843;-76
2024/04/12 21:08:21;;;;;;;4.85;2.45;;;;;;;17.54;100.00;101663.19;5511409;26;20306;-76
2024/04/12 21:10:47;;;;;;;4.10;2.10;;;;;;;17.48;100.00;101658.75;5515606;26;20352;-76
2024/04/12 21:13:12;;;;;;;9.45;2.50;;;;;;;17.42;100.00;101660.63;5515409;26;20316;-76
2024/04/12 21:15:38;;;;;;;4.53;2.00;;;;;;;17.37;100.00;101659.75;5479882;26;20355;-76
2024/04/12 21:18:03;;;;;;;9.68;2.40;;;;;;;17.32;100.00;101666.00;5509201;26;20652;-76
2024/04/12 21:20:29;;;;;;;7.30;2.17;;;;;;;17.30;100.00;101667.34;5515025;26;20672;-76
2024/04/12 21:22:54;;;;;;;4.27;2.00;;;;;;;17.26;100.00;101668.97;5494252;26;20343;-76
2024/04/12 21:25:20;;;;;;;7.45;2.30;;;;;;;17.23;100.00;101655.78;5488297;26;20393;-76
2024/04/12 21:27:46;;;;;;;3.13;2.10;;;;;;;17.20;100.00;101664.53;5488209;26;20785;-76
2024/04/12 21:30:11;;;;;;;3.78;2.05;;;;;;;17.19;100.00;101671.13;5488256;26;20830;-76
2024/04/12 21:32:38;;;;;;;5.00;2.20;;;;;;;17.14;100.00;101663.66;5487936;26;20402;-76
2024/04/12 21:35:06;;;;;;;3.15;2.17;;;;;;;17.10;100.00;101668.81;5455970;26;20395;-76
2024/04/12 21:37:31;;;;;;;7.78;2.28;;;;;;;17.10;100.00;101668.81;5505994;26;20334;-76
2024/04/12 21:39:57;;;;;;;7.47;2.37;;;;;;;17.08;100.00;101657.31;5487392;26;20314;-76
2024/04/12 21:42:22;;;;;;;6.63;2.50;;;;;;;17.08;100.00;101662.78;5482602;26;20312;-76
2024/04/12 21:44:48;;;;;;;4.10;2.00;;;;;;;17.04;100.00;101658.06;5515137;26;20684;-76
2024/04/12 21:47:13;;;;;;;3.20;2.38;;;;;;;17.03;100.00;101659.97;5509600;26;20400;-76
2024/04/12 21:49:39;;;;;;;5.87;2.90;;;;;;;17.02;100.00;101657.53;5511062;26;20318;-76
2024/04/12 21:52:06;;;;;;;5.20;2.93;;;;;;;16.98;100.00;101657.22;5515048;26;20402;-76
2024/04/12 21:54:31;;;;;;;4.90;2.30;;;;;;;16.94;100.00;101657.97;5514936;26;20323;-76
2024/04/12 21:56:56;;;;;;;7.35;3.03;;;;;;;16.92;100.00;101660.97;5508230;26;20308;-76
2024/04/12 21:59:22;;;;;;;6.13;3.00;;;;;;;16.90;100.00;101654.09;5508875;26;20938;-76
2024/04/12 22:01:49;;;;;;;5.45;2.22;;;;;;;16.91;100.00;101653.84;5482220;26;20349;-76
2024/04/12 22:04:14;;;;;;;6.50;2.53;;;;;;;16.89;100.00;101657.94;5515007;26;20430;-76
2024/04/12 22:06:39;;;;;;;6.55;2.95;;;;;;;16.86;100.00;101651.03;5513094;26;20441;-76
2024/04/12 22:09:07;;;;;;;3.20;2.33;;;;;;;16.85;100.00;101657.63;5485872;26;20310;-75
2024/04/12 22:11:32;;;;;;;6.47;2.33;;;;;;;16.81;100.00;101650.16;5513446;26;20342;-76
2024/04/12 22:13:58;;;;;;;7.27;3.60;;;;;;;16.76;100.00;101655.59;5490317;26;20792;-76
2024/04/12 22:16:23;;;;;;;4.50;2.13;;;;;;;16.60;100.00;101663.63;5455347;26;20375;-76
2024/04/12 22:18:49;;;;;;;4.23;1.93;;;;;;;16.56;100.00;101659.72;5487426;26;20306;-76
2024/04/12 22:21:19;;;;;;;3.03;1.90;;;;;;;16.48;100.00;101643.75;5487147;26;20310;-76
2024/04/12 22:23:47;;;;;;;5.22;1.98;;;;;;;16.43;100.00;101646.41;5486085;26;20314;-76
2024/04/12 22:26:15;;;;;;;4.88;2.30;;;;;;;16.41;100.00;101647.75;5487229;26;20369;-76
2024/04/12 22:28:42;;;;;;;7.65;2.28;;;;;;;16.33;100.00;101651.78;5466617;26;20406;-76
2024/04/12 22:31:09;;;;;;;5.37;2.30;;;;;;;16.28;100.00;101653.59;5476080;26;20347;-76
2024/04/12 22:33:34;;;;;;;4.47;2.65;;;;;;;16.24;100.00;101657.91;5499720;26;20335;-76
2024/04/12 22:36:02;;;;;;;5.10;2.22;;;;;;;16.17;100.00;101652.63;5504223;26;20344;-76
2024/04/12 22:38:27;;;;;;;2.72;2.20;;;;;;;16.15;100.00;101648.50;5505225;26;20322;-75
2024/04/12 22:40:55;;;;;;;6.30;2.40;;;;;;;16.19;100.00;101642.28;5496383;26;20388;-76
2024/04/12 22:43:21;;;;;;;5.35;2.80;;;;;;;16.13;100.00;101646.03;5498249;26;20334;-76
2024/04/12 22:45:46;;;;;;;7.23;2.40;;;;;;;16.10;100.00;101647.34;5481625;26;20344;-76
2024/04/12 22:48:11;;;;;;;2.67;2.13;;;;;;;16.14;100.00;101647.66;5507855;26;20314;-76
2024/04/12 22:50:37;;;;;;;5.93;2.37;;;;;;;16.07;100.00;101636.91;5509459;26;20343;-76
2024/04/12 22:53:02;;;;;;;7.00;2.30;;;;;;;16.10;100.00;101632.88;5506240;26;20811;-75
2024/04/12 22:55:27;;;;;;;6.67;2.33;;;;;;;16.02;100.00;101645.06;5499643;26;20334;-76
2024/04/12 22:57:53;;;;;;;8.73;2.27;;;;;;;15.95;100.00;101647.13;5479184;26;20311;-77
2024/04/12 23:00:18;;;;;;;4.37;2.10;;;;;;;15.93;100.00;101646.56;5451279;26;20363;-76
2024/04/12 23:02:43;;;;;;;4.63;2.23;;;;;;;15.85;100.00;101643.41;5480785;26;20340;-76
2024/04/12 23:05:10;;;;;;;3.83;2.20;;;;;;;15.84;100.00;101639.84;5484566;26;20310;-76
2024/04/12 23:07:35;;;;;;;4.10;2.67;;;;;;;15.84;100.00;101642.59;5424537;26;20310;-76
2024/04/12 23:10:02;;;;;;;5.47;2.57;;;;;;;15.85;100.00;101647.00;5452676;26;20829;-75
2024/04/12 23:12:27;;;;;;;5.97;2.85;;;;;;;15.79;100.00;101642.53;5509179;26;20328;-75
2024/04/12 23:14:52;;;;;;;12.50;3.50;;;;;;;15.74;100.00;101644.38;5480897;26;20918;-76
2024/04/12 23:17:18;;;;;;;10.02;3.00;;;;;;;15.67;100.00;101639.06;5513575;26;20383;-76
2024/04/12 23:19:43;;;;;;;6.90;3.27;;;;;;;15.64;100.00;101636.84;5489923;26;20712;-76
2024/04/12 23:22:08;;;;;;;5.10;3.17;;;;;;;15.66;100.00;101639.31;5440184;26;20330;-75
2024/04/12 23:24:38;;;;;;;4.78;2.35;;;;;;;15.63;100.00;101631.63;5465089;26;20794;-76
2024/04/12 23:27:03;;;;;;;8.70;2.95;;;;;;;15.65;100.00;101634.91;5517222;26;20359;-76
2024/04/12 23:29:30;;;;;;;2.75;2.42;;;;;;;15.58;100.00;101640.53;5498268;26;20322;-75
2024/04/12 23:31:55;;;;;;;5.65;2.58;;;;;;;15.53;100.00;101635.84;5503077;26;20302;-76
2024/04/12 23:34:21;;;;;;;2.90;2.67;;;;;;;15.47;100.00;101636.81;5489958;26;20349;-76
2024/04/12 23:36:46;;;;;;;2.83;2.60;;;;;;;15.44;100.00;101640.00;5489677;26;20657;-75
2024/04/12 23:39:12;;;;;;;5.28;2.38;;;;;;;15.45;100.00;101638.13;5491670;26;20334;-75
2024/04/12 23:41:39;;;;;;;3.80;2.55;;;;;;;15.39;100.00;101647.31;5489567;26;20319;-76
2024/04/12 23:44:04;;;;;;;7.55;3.08;;;;;;;15.37;100.00;101638.56;5489560;26;20362;-75
2024/04/12 23:46:31;;;;;;;4.75;3.08;;;;;;;15.35;100.00;101649.72;5489769;26;20350;-76
2024/04/12 23:48:56;;;;;;;6.15;2.80;;;;;;;15.30;100.00;101637.88;5455950;26;20362;-76
2024/04/12 23:51:22;;;;;;;5.93;3.00;;;;;;;15.25;100.00;101635.88;5487981;26;20821;-76
2024/04/12 23:53:47;;;;;;;4.40;3.20;;;;;;;15.26;100.00;101628.53;5516199;26;20308;-76
2024/04/12 23:56:12;;;;;;;7.73;2.80;;;;;;;15.28;100.00;101634.59;5486067;26;20315;-76
2024/04/12 23:58:38;;;;;;;6.93;3.60;;;;;;;15.27;100.00;101635.66;5488640;26;20670;-75
